Mineral Point, Pennsylvania
Current Conditions -  °F | °C
As of 5:54 PM on Thursday 23 Oct 2014 (Local Time) from KJST Reporting Station
Clear Clear  
Wind Chill: 54°   Ceiling: Unl
Heat Index: 54°   Visibility: 10mi
Dew Point: 37°   Wind: 20mph
Humidity: 53%   Direction: 320°NW
Pressure: 29.99"   Gusts: 29mph
Location:  40.38°N, 78.84°W
Report Text: KJST 232154Z AUTO 32017G25KT 10SM CLR 12/03 A2999 RMK AO2 SLP163 T01220028
Loading
Personal Weather Stations






























Interactive Weather Map
Tropical Storm Tracking
New forecast layout! Learn more

10-Day Weather Forecast

Advertisements
Track Severe Weather on mobile